SUR4729 CYQM-CYRC
Flight info
| Callsign | SUR4729 |
|---|---|
| Flight time | 1h 18m |
| Altitude | 26000 |
| Route | KAVMU |
| Aircraft | B350/L-SBGRW/S |
Departure
| Time | 2026-04-29 19:25 |
|---|---|
| Airport | Greater Moncton Roméo LeBlanc International Airport (CYQM) |
Arrival
| Time | 2026-04-29 20:43 |
|---|---|
| Airport | Chicoutimi/Saint-Honoré Aerodrome (CYRC) |
| Time | Latitude | Longitude | Altitude | Speed | Heading |
|---|---|---|---|---|---|
| 2026-04-29 19:23 | 46.12355 | -64.67120 | 207 ft | 20 kts | 43° |
| 2026-04-29 19:23 | 46.12468 | -64.66984 | 214 ft | 21 kts | 32° |
| 2026-04-29 19:23 | 46.12512 | -64.66930 | 209 ft | 5 kts | 185° |
| 2026-04-29 19:24 | 46.12475 | -64.66959 | 208 ft | 0 kts | 223° |
| 2026-04-29 19:24 | 46.12466 | -64.66972 | 211 ft | 14 kts | 223° |
| 2026-04-29 19:24 | 46.12164 | -64.67377 | 215 ft | 98 kts | 222° |
| 2026-04-29 19:24 | 46.11579 | -64.68192 | 460 ft | 125 kts | 221° |
| 2026-04-29 19:25 | 46.10931 | -64.69120 | 840 ft | 146 kts | 220° |
| 2026-04-29 19:25 | 46.10087 | -64.70186 | 1324 ft | 169 kts | 216° |
| 2026-04-29 19:25 | 46.09176 | -64.71330 | 2000 ft | 178 kts | 221° |
| 2026-04-29 19:25 | 46.08274 | -64.72673 | 2603 ft | 187 kts | 223° |
| 2026-04-29 19:26 | 46.07354 | -64.74075 | 3099 ft | 198 kts | 222° |
| 2026-04-29 19:26 | 46.06462 | -64.75684 | 3472 ft | 215 kts | 238° |
| 2026-04-29 19:26 | 46.06057 | -64.77827 | 3800 ft | 231 kts | 266° |
| 2026-04-29 19:26 | 46.06409 | -64.80072 | 4259 ft | 239 kts | 295° |
| 2026-04-29 19:27 | 46.07500 | -64.81890 | 4715 ft | 246 kts | 323° |
| 2026-04-29 19:27 | 46.08940 | -64.83237 | 5161 ft | 246 kts | 322° |
| 2026-04-29 19:27 | 46.10280 | -64.84792 | 5569 ft | 248 kts | 316° |
| 2026-04-29 19:27 | 46.11549 | -64.86520 | 5910 ft | 253 kts | 311° |
| 2026-04-29 19:28 | 46.12754 | -64.88397 | 6270 ft | 255 kts | 308° |
| 2026-04-29 19:28 | 46.13929 | -64.90313 | 6665 ft | 256 kts | 308° |
| 2026-04-29 19:28 | 46.15124 | -64.92233 | 7039 ft | 258 kts | 309° |
| 2026-04-29 19:28 | 46.16297 | -64.94189 | 7389 ft | 259 kts | 305° |
| 2026-04-29 19:29 | 46.17378 | -64.96276 | 7757 ft | 259 kts | 301° |
| 2026-04-29 19:29 | 46.18331 | -64.98448 | 8168 ft | 257 kts | 297° |
| 2026-04-29 19:29 | 46.19247 | -65.00685 | 8492 ft | 259 kts | 297° |
| 2026-04-29 19:29 | 46.20124 | -65.02940 | 8911 ft | 258 kts | 295° |
| 2026-04-29 19:30 | 46.21135 | -65.05111 | 9241 ft | 263 kts | 308° |
| 2026-04-29 19:30 | 46.22335 | -65.07104 | 9654 ft | 262 kts | 309° |
| 2026-04-29 19:30 | 46.23531 | -65.09098 | 10046 ft | 264 kts | 308° |
| 2026-04-29 19:30 | 46.24692 | -65.11161 | 10448 ft | 267 kts | 307° |
| 2026-04-29 19:31 | 46.25880 | -65.13258 | 10754 ft | 272 kts | 304° |
| 2026-04-29 19:31 | 46.26985 | -65.15498 | 10968 ft | 275 kts | 304° |
| 2026-04-29 19:31 | 46.28146 | -65.17706 | 11192 ft | 277 kts | 305° |
| 2026-04-29 19:31 | 46.29301 | -65.19941 | 11415 ft | 278 kts | 304° |
| 2026-04-29 19:32 | 46.30450 | -65.22188 | 11642 ft | 279 kts | 304° |
| 2026-04-29 19:32 | 46.31622 | -65.24440 | 11864 ft | 280 kts | 305° |
| 2026-04-29 19:32 | 46.32782 | -65.26700 | 12088 ft | 280 kts | 305° |
| 2026-04-29 19:32 | 46.33948 | -65.28960 | 12317 ft | 280 kts | 305° |
| 2026-04-29 19:33 | 46.35114 | -65.31224 | 12549 ft | 281 kts | 304° |
| 2026-04-29 19:33 | 46.36262 | -65.33459 | 12803 ft | 280 kts | 304° |
| 2026-04-29 19:33 | 46.37437 | -65.35746 | 13063 ft | 280 kts | 305° |
| 2026-04-29 19:33 | 46.38584 | -65.37976 | 13324 ft | 279 kts | 305° |
| 2026-04-29 19:34 | 46.39740 | -65.40238 | 13582 ft | 279 kts | 305° |
| 2026-04-29 19:34 | 46.40917 | -65.42526 | 13830 ft | 280 kts | 305° |
| 2026-04-29 19:34 | 46.42085 | -65.44806 | 14045 ft | 281 kts | 305° |
| 2026-04-29 19:34 | 46.43241 | -65.47069 | 14324 ft | 279 kts | 305° |
| 2026-04-29 19:35 | 46.44401 | -65.49330 | 14558 ft | 280 kts | 305° |
| 2026-04-29 19:35 | 46.45559 | -65.51602 | 14800 ft | 280 kts | 304° |
| 2026-04-29 19:35 | 46.46707 | -65.53850 | 15042 ft | 281 kts | 305° |
| 2026-04-29 19:35 | 46.47869 | -65.56125 | 15281 ft | 281 kts | 304° |
| 2026-04-29 19:36 | 46.49033 | -65.58411 | 15528 ft | 281 kts | 304° |
| 2026-04-29 19:36 | 46.50195 | -65.60694 | 15777 ft | 281 kts | 304° |
| 2026-04-29 19:36 | 46.51359 | -65.62978 | 16030 ft | 281 kts | 304° |
| 2026-04-29 19:36 | 46.52522 | -65.65265 | 16286 ft | 281 kts | 304° |
| 2026-04-29 19:37 | 46.53684 | -65.67555 | 16536 ft | 281 kts | 304° |
| 2026-04-29 19:37 | 46.54454 | -65.69070 | 16710 ft | 281 kts | 304° |
| 2026-04-29 19:37 | 46.56006 | -65.72130 | 17056 ft | 281 kts | 304° |
| 2026-04-29 19:37 | 46.57166 | -65.74417 | 17319 ft | 281 kts | 303° |
| 2026-04-29 19:38 | 46.58326 | -65.76708 | 17579 ft | 281 kts | 303° |
| 2026-04-29 19:38 | 46.59484 | -65.78997 | 17851 ft | 281 kts | 303° |
| 2026-04-29 19:38 | 46.60639 | -65.81282 | 18112 ft | 280 kts | 303° |
| 2026-04-29 19:38 | 46.61793 | -65.83566 | 18381 ft | 280 kts | 302° |
| 2026-04-29 19:39 | 46.62945 | -65.85848 | 18620 ft | 280 kts | 302° |
| 2026-04-29 19:39 | 46.64095 | -65.88129 | 18858 ft | 279 kts | 302° |
| 2026-04-29 19:39 | 46.65244 | -65.90409 | 19092 ft | 279 kts | 302° |
| 2026-04-29 19:39 | 46.66392 | -65.92688 | 19335 ft | 279 kts | 302° |
| 2026-04-29 19:40 | 46.67536 | -65.94965 | 19572 ft | 279 kts | 302° |
| 2026-04-29 19:40 | 46.68681 | -65.97240 | 19818 ft | 279 kts | 302° |
| 2026-04-29 19:40 | 46.69826 | -65.99521 | 20061 ft | 279 kts | 302° |
| 2026-04-29 19:40 | 46.70970 | -66.01801 | 20288 ft | 279 kts | 302° |
| 2026-04-29 19:41 | 46.72120 | -66.04093 | 20514 ft | 280 kts | 302° |
| 2026-04-29 19:41 | 46.73271 | -66.06391 | 20739 ft | 281 kts | 302° |
| 2026-04-29 19:41 | 46.74422 | -66.08690 | 20973 ft | 281 kts | 302° |
| 2026-04-29 19:41 | 46.75576 | -66.10996 | 21196 ft | 282 kts | 302° |
| 2026-04-29 19:42 | 46.76729 | -66.13304 | 21421 ft | 282 kts | 302° |
| 2026-04-29 19:42 | 46.77492 | -66.14833 | 21584 ft | 282 kts | 302° |
| 2026-04-29 19:42 | 46.79035 | -66.17923 | 21899 ft | 282 kts | 302° |
| 2026-04-29 19:42 | 46.80186 | -66.20233 | 22138 ft | 281 kts | 302° |
| 2026-04-29 19:43 | 46.81337 | -66.22546 | 22374 ft | 282 kts | 302° |
| 2026-04-29 19:43 | 46.82489 | -66.24857 | 22609 ft | 281 kts | 302° |
| 2026-04-29 19:43 | 46.83638 | -66.27167 | 22853 ft | 281 kts | 302° |
| 2026-04-29 19:43 | 46.84784 | -66.29477 | 23093 ft | 280 kts | 302° |
| 2026-04-29 19:44 | 46.85929 | -66.31779 | 23340 ft | 280 kts | 302° |
| 2026-04-29 19:44 | 46.87055 | -66.34052 | 23570 ft | 280 kts | 302° |
| 2026-04-29 19:44 | 46.88198 | -66.36355 | 23772 ft | 280 kts | 302° |
| 2026-04-29 19:44 | 46.89339 | -66.38660 | 23958 ft | 280 kts | 302° |
| 2026-04-29 19:45 | 46.90483 | -66.40971 | 24142 ft | 280 kts | 302° |
| 2026-04-29 19:45 | 46.91627 | -66.43285 | 24327 ft | 280 kts | 302° |
| 2026-04-29 19:45 | 46.92769 | -66.45599 | 24518 ft | 280 kts | 302° |
| 2026-04-29 19:45 | 46.93910 | -66.47908 | 24703 ft | 280 kts | 302° |
| 2026-04-29 19:46 | 46.95050 | -66.50223 | 24897 ft | 280 kts | 302° |
| 2026-04-29 19:46 | 46.96190 | -66.52533 | 25095 ft | 280 kts | 302° |
| 2026-04-29 19:46 | 46.97331 | -66.54852 | 25280 ft | 280 kts | 302° |
| 2026-04-29 19:46 | 46.98469 | -66.57166 | 25475 ft | 280 kts | 302° |
| 2026-04-29 19:47 | 46.99607 | -66.59479 | 25664 ft | 280 kts | 301° |
| 2026-04-29 19:47 | 47.00743 | -66.61793 | 25825 ft | 281 kts | 301° |
| 2026-04-29 19:47 | 47.01894 | -66.64142 | 25896 ft | 286 kts | 301° |
| 2026-04-29 19:47 | 47.03063 | -66.66523 | 25928 ft | 290 kts | 301° |
| 2026-04-29 19:48 | 47.04249 | -66.68944 | 25949 ft | 294 kts | 301° |
| 2026-04-29 19:48 | 47.05061 | -66.70602 | 25956 ft | 297 kts | 302° |
| 2026-04-29 19:48 | 47.06666 | -66.73883 | 25956 ft | 301 kts | 302° |
| 2026-04-29 19:48 | 47.07887 | -66.76384 | 25956 ft | 303 kts | 301° |
| 2026-04-29 19:49 | 47.09119 | -66.78906 | 25960 ft | 304 kts | 302° |
| 2026-04-29 19:49 | 47.10354 | -66.81441 | 25957 ft | 306 kts | 302° |
| 2026-04-29 19:49 | 47.11593 | -66.83982 | 25957 ft | 307 kts | 302° |
| 2026-04-29 19:49 | 47.12833 | -66.86532 | 25954 ft | 307 kts | 302° |
| 2026-04-29 19:50 | 47.14078 | -66.89090 | 25954 ft | 308 kts | 302° |
| 2026-04-29 19:50 | 47.15322 | -66.91650 | 25956 ft | 308 kts | 302° |
| 2026-04-29 19:50 | 47.16565 | -66.94212 | 25959 ft | 308 kts | 302° |
| 2026-04-29 19:50 | 47.17810 | -66.96778 | 25959 ft | 308 kts | 302° |
| 2026-04-29 19:51 | 47.19054 | -66.99346 | 25958 ft | 309 kts | 302° |
| 2026-04-29 19:51 | 47.20286 | -67.01890 | 25957 ft | 309 kts | 302° |
| 2026-04-29 19:51 | 47.21529 | -67.04463 | 25952 ft | 309 kts | 302° |
| 2026-04-29 19:51 | 47.22775 | -67.07039 | 25949 ft | 309 kts | 301° |
| 2026-04-29 19:52 | 47.24016 | -67.09610 | 25953 ft | 308 kts | 301° |
| 2026-04-29 19:52 | 47.25255 | -67.12180 | 25955 ft | 308 kts | 301° |
| 2026-04-29 19:52 | 47.26494 | -67.14751 | 25953 ft | 308 kts | 302° |
| 2026-04-29 19:52 | 47.27731 | -67.17321 | 25948 ft | 308 kts | 301° |
| 2026-04-29 19:53 | 47.28968 | -67.19893 | 25949 ft | 307 kts | 301° |
| 2026-04-29 19:53 | 47.30203 | -67.22463 | 25948 ft | 307 kts | 301° |
| 2026-04-29 19:53 | 47.31436 | -67.25033 | 25951 ft | 307 kts | 301° |
| 2026-04-29 19:53 | 47.32669 | -67.27603 | 25938 ft | 307 kts | 301° |
| 2026-04-29 19:54 | 47.35129 | -67.32740 | 25942 ft | 307 kts | 301° |
| 2026-04-29 19:54 | 47.36359 | -67.35310 | 25940 ft | 306 kts | 301° |
| 2026-04-29 19:54 | 47.37586 | -67.37879 | 25935 ft | 306 kts | 301° |
| 2026-04-29 19:55 | 47.38397 | -67.39579 | 25924 ft | 306 kts | 301° |
| 2026-04-29 19:55 | 47.40038 | -67.43018 | 25927 ft | 306 kts | 301° |
| 2026-04-29 19:55 | 47.40849 | -67.44720 | 25923 ft | 306 kts | 301° |
| 2026-04-29 19:55 | 47.42073 | -67.47291 | 25922 ft | 306 kts | 301° |
| 2026-04-29 19:56 | 47.43296 | -67.49861 | 25916 ft | 306 kts | 301° |
| 2026-04-29 19:56 | 47.44515 | -67.52427 | 25914 ft | 306 kts | 301° |
| 2026-04-29 19:56 | 47.45736 | -67.54998 | 25912 ft | 306 kts | 301° |
| 2026-04-29 19:56 | 47.46957 | -67.57570 | 25904 ft | 306 kts | 301° |
| 2026-04-29 19:57 | 47.48176 | -67.60143 | 25906 ft | 305 kts | 301° |
| 2026-04-29 19:57 | 47.49394 | -67.62716 | 25894 ft | 305 kts | 301° |
| 2026-04-29 19:57 | 47.50611 | -67.65287 | 25897 ft | 305 kts | 301° |
| 2026-04-29 19:57 | 47.51825 | -67.67858 | 25897 ft | 305 kts | 301° |
| 2026-04-29 19:58 | 47.53039 | -67.70429 | 25899 ft | 304 kts | 301° |
| 2026-04-29 19:58 | 47.54251 | -67.72996 | 25899 ft | 304 kts | 301° |
| 2026-04-29 19:58 | 47.55462 | -67.75568 | 25898 ft | 304 kts | 301° |
| 2026-04-29 19:58 | 47.56672 | -67.78134 | 25899 ft | 304 kts | 301° |
| 2026-04-29 19:59 | 47.57878 | -67.80701 | 25896 ft | 304 kts | 301° |
| 2026-04-29 19:59 | 47.59088 | -67.83274 | 25897 ft | 304 kts | 301° |
| 2026-04-29 19:59 | 47.60296 | -67.85848 | 25897 ft | 304 kts | 301° |
| 2026-04-29 19:59 | 47.61504 | -67.88422 | 25894 ft | 304 kts | 301° |
| 2026-04-29 20:00 | 47.62709 | -67.90993 | 25891 ft | 304 kts | 301° |
| 2026-04-29 20:00 | 47.63913 | -67.93565 | 25891 ft | 304 kts | 301° |
| 2026-04-29 20:00 | 47.65119 | -67.96144 | 25889 ft | 304 kts | 301° |
| 2026-04-29 20:00 | 47.66322 | -67.98716 | 25885 ft | 304 kts | 301° |
| 2026-04-29 20:01 | 47.67524 | -68.01290 | 25884 ft | 303 kts | 301° |
| 2026-04-29 20:01 | 47.68724 | -68.03866 | 25885 ft | 303 kts | 301° |
| 2026-04-29 20:01 | 47.69923 | -68.06439 | 25883 ft | 303 kts | 301° |
| 2026-04-29 20:01 | 47.71113 | -68.08992 | 25875 ft | 303 kts | 301° |
| 2026-04-29 20:02 | 47.72309 | -68.11565 | 25868 ft | 303 kts | 301° |
| 2026-04-29 20:02 | 47.73506 | -68.14139 | 25875 ft | 303 kts | 301° |
| 2026-04-29 20:02 | 47.74702 | -68.16716 | 25866 ft | 303 kts | 301° |
| 2026-04-29 20:02 | 47.75507 | -68.18451 | 25862 ft | 303 kts | 301° |
| 2026-04-29 20:03 | 47.77086 | -68.21859 | 25861 ft | 302 kts | 301° |
| 2026-04-29 20:03 | 47.78297 | -68.24471 | 25858 ft | 302 kts | 301° |
| 2026-04-29 20:03 | 47.79487 | -68.27048 | 25857 ft | 302 kts | 301° |
| 2026-04-29 20:03 | 47.80660 | -68.29584 | 25909 ft | 301 kts | 301° |
| 2026-04-29 20:04 | 47.81856 | -68.32177 | 25941 ft | 299 kts | 301° |
| 2026-04-29 20:04 | 47.83032 | -68.34727 | 25967 ft | 299 kts | 301° |
| 2026-04-29 20:04 | 47.84212 | -68.37287 | 25972 ft | 300 kts | 301° |
| 2026-04-29 20:04 | 47.85392 | -68.39852 | 25975 ft | 300 kts | 301° |
| 2026-04-29 20:05 | 47.86573 | -68.42418 | 25968 ft | 301 kts | 301° |
| 2026-04-29 20:05 | 47.87757 | -68.44994 | 25968 ft | 301 kts | 301° |
| 2026-04-29 20:05 | 47.88937 | -68.47565 | 25971 ft | 301 kts | 301° |
| 2026-04-29 20:05 | 47.90121 | -68.50146 | 25965 ft | 301 kts | 301° |
| 2026-04-29 20:06 | 47.91302 | -68.52723 | 25964 ft | 301 kts | 301° |
| 2026-04-29 20:06 | 47.92482 | -68.55301 | 25965 ft | 301 kts | 301° |
| 2026-04-29 20:06 | 47.93664 | -68.57887 | 25955 ft | 301 kts | 301° |
| 2026-04-29 20:06 | 47.94843 | -68.60467 | 25953 ft | 301 kts | 301° |
| 2026-04-29 20:07 | 47.96022 | -68.63048 | 25954 ft | 301 kts | 301° |
| 2026-04-29 20:07 | 47.97200 | -68.65634 | 25952 ft | 301 kts | 301° |
| 2026-04-29 20:07 | 47.98379 | -68.68220 | 25956 ft | 301 kts | 301° |
| 2026-04-29 20:07 | 47.99556 | -68.70806 | 25948 ft | 301 kts | 301° |
| 2026-04-29 20:08 | 48.00732 | -68.73393 | 25949 ft | 301 kts | 301° |
| 2026-04-29 20:08 | 48.01526 | -68.75139 | 25946 ft | 301 kts | 301° |
| 2026-04-29 20:08 | 48.03095 | -68.78597 | 25941 ft | 301 kts | 301° |
| 2026-04-29 20:08 | 48.04268 | -68.81183 | 25943 ft | 301 kts | 301° |
| 2026-04-29 20:09 | 48.05439 | -68.83768 | 25940 ft | 301 kts | 301° |
| 2026-04-29 20:09 | 48.06610 | -68.86356 | 25936 ft | 300 kts | 301° |
| 2026-04-29 20:09 | 48.07783 | -68.88948 | 25938 ft | 300 kts | 300° |
| 2026-04-29 20:09 | 48.08951 | -68.91537 | 25935 ft | 300 kts | 300° |
| 2026-04-29 20:10 | 48.10120 | -68.94127 | 25930 ft | 300 kts | 300° |
| 2026-04-29 20:10 | 48.11286 | -68.96711 | 25938 ft | 300 kts | 300° |
| 2026-04-29 20:10 | 48.12455 | -68.99307 | 25932 ft | 300 kts | 300° |
| 2026-04-29 20:10 | 48.13621 | -69.01899 | 25936 ft | 301 kts | 300° |
| 2026-04-29 20:11 | 48.14789 | -69.04496 | 25930 ft | 301 kts | 300° |
| 2026-04-29 20:11 | 48.15956 | -69.07096 | 25941 ft | 300 kts | 300° |
| 2026-04-29 20:11 | 48.17124 | -69.09698 | 25937 ft | 301 kts | 300° |
| 2026-04-29 20:11 | 48.18290 | -69.12298 | 25932 ft | 301 kts | 300° |
| 2026-04-29 20:12 | 48.19456 | -69.14901 | 25933 ft | 301 kts | 300° |
| 2026-04-29 20:12 | 48.20618 | -69.17501 | 25933 ft | 300 kts | 300° |
| 2026-04-29 20:12 | 48.21767 | -69.20070 | 25933 ft | 300 kts | 300° |
| 2026-04-29 20:12 | 48.22927 | -69.22667 | 25932 ft | 300 kts | 300° |
| 2026-04-29 20:13 | 48.24088 | -69.25269 | 25938 ft | 300 kts | 300° |
| 2026-04-29 20:13 | 48.24871 | -69.27026 | 25939 ft | 300 kts | 300° |
| 2026-04-29 20:13 | 48.26407 | -69.30475 | 25935 ft | 300 kts | 300° |
| 2026-04-29 20:13 | 48.27563 | -69.33075 | 25937 ft | 300 kts | 300° |
| 2026-04-29 20:14 | 48.28719 | -69.35674 | 25933 ft | 300 kts | 300° |
| 2026-04-29 20:14 | 48.29876 | -69.38283 | 25935 ft | 300 kts | 300° |
| 2026-04-29 20:14 | 48.31033 | -69.40888 | 25933 ft | 300 kts | 300° |
| 2026-04-29 20:14 | 48.32188 | -69.43495 | 25939 ft | 300 kts | 300° |
| 2026-04-29 20:15 | 48.33343 | -69.46105 | 25939 ft | 300 kts | 300° |
| 2026-04-29 20:15 | 48.34500 | -69.48719 | 25935 ft | 300 kts | 300° |
| 2026-04-29 20:15 | 48.35654 | -69.51332 | 25933 ft | 300 kts | 299° |
| 2026-04-29 20:15 | 48.36814 | -69.53960 | 25718 ft | 298 kts | 299° |
| 2026-04-29 20:16 | 48.37886 | -69.56379 | 25468 ft | 276 kts | 299° |
| 2026-04-29 20:16 | 48.38940 | -69.58793 | 25217 ft | 277 kts | 299° |
| 2026-04-29 20:16 | 48.40014 | -69.61226 | 24978 ft | 280 kts | 299° |
| 2026-04-29 20:16 | 48.41093 | -69.63671 | 24733 ft | 281 kts | 299° |
| 2026-04-29 20:17 | 48.42176 | -69.66144 | 24395 ft | 282 kts | 299° |
| 2026-04-29 20:17 | 48.43251 | -69.68583 | 24067 ft | 277 kts | 299° |
| 2026-04-29 20:17 | 48.44303 | -69.70987 | 23734 ft | 273 kts | 299° |
| 2026-04-29 20:17 | 48.45340 | -69.73353 | 23393 ft | 269 kts | 299° |
| 2026-04-29 20:18 | 48.46369 | -69.75700 | 23008 ft | 267 kts | 298° |
| 2026-04-29 20:18 | 48.47383 | -69.78021 | 22627 ft | 264 kts | 298° |
| 2026-04-29 20:18 | 48.48395 | -69.80336 | 22251 ft | 266 kts | 298° |
| 2026-04-29 20:18 | 48.49418 | -69.82678 | 21887 ft | 268 kts | 298° |
| 2026-04-29 20:19 | 48.50459 | -69.85063 | 21520 ft | 270 kts | 298° |
| 2026-04-29 20:19 | 48.51476 | -69.87439 | 21145 ft | 269 kts | 294° |
| 2026-04-29 20:19 | 48.52177 | -69.90012 | 20785 ft | 264 kts | 282° |
| 2026-04-29 20:19 | 48.52681 | -69.92669 | 20435 ft | 263 kts | 280° |
| 2026-04-29 20:20 | 48.53137 | -69.95338 | 20083 ft | 263 kts | 279° |
| 2026-04-29 20:20 | 48.53574 | -69.98017 | 19738 ft | 263 kts | 279° |
| 2026-04-29 20:20 | 48.53998 | -70.00696 | 19403 ft | 261 kts | 277° |
| 2026-04-29 20:20 | 48.54269 | -70.03372 | 19071 ft | 256 kts | 271° |
| 2026-04-29 20:21 | 48.54493 | -70.06030 | 18726 ft | 254 kts | 274° |
| 2026-04-29 20:21 | 48.54759 | -70.08653 | 18376 ft | 251 kts | 273° |
| 2026-04-29 20:21 | 48.54993 | -70.11252 | 18036 ft | 249 kts | 272° |
| 2026-04-29 20:21 | 48.55229 | -70.13796 | 17677 ft | 248 kts | 273° |
| 2026-04-29 20:22 | 48.55473 | -70.16365 | 17324 ft | 246 kts | 273° |
| 2026-04-29 20:22 | 48.55707 | -70.18909 | 17009 ft | 243 kts | 272° |
| 2026-04-29 20:22 | 48.55939 | -70.21428 | 16696 ft | 241 kts | 272° |
| 2026-04-29 20:22 | 48.56170 | -70.23927 | 16393 ft | 240 kts | 273° |
| 2026-04-29 20:23 | 48.56401 | -70.26423 | 16080 ft | 239 kts | 272° |
| 2026-04-29 20:23 | 48.56627 | -70.28900 | 15770 ft | 238 kts | 272° |
| 2026-04-29 20:23 | 48.56853 | -70.31366 | 15476 ft | 237 kts | 272° |
| 2026-04-29 20:23 | 48.57079 | -70.33825 | 15178 ft | 236 kts | 272° |
| 2026-04-29 20:24 | 48.57302 | -70.36275 | 14885 ft | 235 kts | 272° |
| 2026-04-29 20:24 | 48.57525 | -70.38723 | 14591 ft | 235 kts | 272° |
| 2026-04-29 20:24 | 48.57746 | -70.41160 | 14303 ft | 234 kts | 272° |
| 2026-04-29 20:24 | 48.57966 | -70.43595 | 14013 ft | 234 kts | 272° |
| 2026-04-29 20:25 | 48.58184 | -70.46021 | 13731 ft | 233 kts | 272° |
| 2026-04-29 20:25 | 48.58405 | -70.48441 | 13421 ft | 232 kts | 272° |
| 2026-04-29 20:25 | 48.58619 | -70.50853 | 13100 ft | 231 kts | 272° |
| 2026-04-29 20:25 | 48.58835 | -70.53256 | 12785 ft | 230 kts | 272° |
| 2026-04-29 20:26 | 48.59050 | -70.55646 | 12466 ft | 229 kts | 272° |
| 2026-04-29 20:26 | 48.59261 | -70.58026 | 12148 ft | 228 kts | 272° |
| 2026-04-29 20:26 | 48.59470 | -70.60389 | 11840 ft | 227 kts | 272° |
| 2026-04-29 20:26 | 48.59682 | -70.62740 | 11542 ft | 225 kts | 272° |
| 2026-04-29 20:27 | 48.59887 | -70.65082 | 11240 ft | 224 kts | 272° |
| 2026-04-29 20:27 | 48.60022 | -70.66625 | 11045 ft | 224 kts | 272° |
| 2026-04-29 20:27 | 48.60299 | -70.69738 | 10644 ft | 223 kts | 272° |
| 2026-04-29 20:27 | 48.60503 | -70.72053 | 10360 ft | 222 kts | 271° |
| 2026-04-29 20:28 | 48.60706 | -70.74368 | 10063 ft | 221 kts | 271° |
| 2026-04-29 20:28 | 48.60906 | -70.76668 | 9778 ft | 221 kts | 272° |
| 2026-04-29 20:28 | 48.61108 | -70.78972 | 9461 ft | 221 kts | 272° |
| 2026-04-29 20:28 | 48.61304 | -70.81237 | 9148 ft | 220 kts | 271° |
| 2026-04-29 20:29 | 48.61504 | -70.83532 | 8827 ft | 220 kts | 272° |
| 2026-04-29 20:29 | 48.61703 | -70.85817 | 8526 ft | 219 kts | 272° |
| 2026-04-29 20:29 | 48.61901 | -70.88101 | 8228 ft | 220 kts | 272° |
| 2026-04-29 20:29 | 48.62098 | -70.90395 | 7929 ft | 220 kts | 272° |
| 2026-04-29 20:30 | 48.62295 | -70.92687 | 7615 ft | 220 kts | 272° |
| 2026-04-29 20:30 | 48.62493 | -70.94982 | 7320 ft | 220 kts | 272° |
| 2026-04-29 20:30 | 48.62689 | -70.97270 | 7043 ft | 219 kts | 272° |
| 2026-04-29 20:30 | 48.62884 | -70.99547 | 6779 ft | 217 kts | 273° |
| 2026-04-29 20:31 | 48.63077 | -71.01800 | 6533 ft | 215 kts | 272° |
| 2026-04-29 20:31 | 48.63266 | -71.04034 | 6290 ft | 213 kts | 273° |
| 2026-04-29 20:31 | 48.63452 | -71.06222 | 6082 ft | 206 kts | 273° |
| 2026-04-29 20:31 | 48.63631 | -71.08316 | 5902 ft | 196 kts | 273° |
| 2026-04-29 20:32 | 48.63800 | -71.10315 | 5738 ft | 189 kts | 272° |
| 2026-04-29 20:32 | 48.63960 | -71.12259 | 5565 ft | 185 kts | 272° |
| 2026-04-29 20:32 | 48.64121 | -71.14167 | 5391 ft | 182 kts | 273° |
| 2026-04-29 20:32 | 48.64226 | -71.15415 | 5297 ft | 181 kts | 273° |
| 2026-04-29 20:33 | 48.64438 | -71.17927 | 5029 ft | 179 kts | 273° |
| 2026-04-29 20:33 | 48.64593 | -71.19782 | 4849 ft | 177 kts | 273° |
| 2026-04-29 20:33 | 48.64746 | -71.21620 | 4697 ft | 174 kts | 273° |
| 2026-04-29 20:33 | 48.64896 | -71.23408 | 4568 ft | 170 kts | 273° |
| 2026-04-29 20:34 | 48.65042 | -71.25164 | 4449 ft | 167 kts | 273° |
| 2026-04-29 20:34 | 48.65186 | -71.26908 | 4320 ft | 166 kts | 273° |
| 2026-04-29 20:34 | 48.65330 | -71.28641 | 4198 ft | 166 kts | 273° |
| 2026-04-29 20:34 | 48.65425 | -71.29784 | 4111 ft | 166 kts | 273° |
| 2026-04-29 20:35 | 48.65614 | -71.32093 | 3922 ft | 164 kts | 274° |
| 2026-04-29 20:35 | 48.65708 | -71.33223 | 3835 ft | 163 kts | 273° |
| 2026-04-29 20:35 | 48.65898 | -71.35486 | 3665 ft | 162 kts | 273° |
| 2026-04-29 20:35 | 48.66029 | -71.37167 | 3548 ft | 161 kts | 273° |
| 2026-04-29 20:36 | 48.66092 | -71.38278 | 3460 ft | 159 kts | 262° |
| 2026-04-29 20:36 | 48.65510 | -71.39536 | 3374 ft | 152 kts | 202° |
| 2026-04-29 20:36 | 48.64500 | -71.39266 | 3279 ft | 158 kts | 142° |
| 2026-04-29 20:36 | 48.63738 | -71.38021 | 3194 ft | 160 kts | 138° |
| 2026-04-29 20:37 | 48.62937 | -71.36861 | 3107 ft | 159 kts | 144° |
| 2026-04-29 20:37 | 48.62077 | -71.35809 | 2983 ft | 159 kts | 147° |
| 2026-04-29 20:37 | 48.61176 | -71.34901 | 2885 ft | 156 kts | 154° |
| 2026-04-29 20:37 | 48.60219 | -71.34115 | 2751 ft | 154 kts | 155° |
| 2026-04-29 20:38 | 48.59312 | -71.33319 | 2693 ft | 152 kts | 153° |
| 2026-04-29 20:38 | 48.58395 | -71.32508 | 2647 ft | 150 kts | 153° |
| 2026-04-29 20:38 | 48.57510 | -71.31723 | 2564 ft | 149 kts | 153° |
| 2026-04-29 20:38 | 48.56635 | -71.30908 | 2433 ft | 149 kts | 141° |
| 2026-04-29 20:39 | 48.56126 | -71.29546 | 2340 ft | 148 kts | 116° |
| 2026-04-29 20:39 | 48.55741 | -71.28120 | 2286 ft | 146 kts | 116° |
| 2026-04-29 20:39 | 48.55435 | -71.26654 | 2236 ft | 146 kts | 107° |
| 2026-04-29 20:39 | 48.55215 | -71.25170 | 2226 ft | 144 kts | 107° |
| 2026-04-29 20:40 | 48.54964 | -71.23700 | 2218 ft | 146 kts | 109° |
| 2026-04-29 20:40 | 48.54688 | -71.22218 | 2231 ft | 147 kts | 109° |
| 2026-04-29 20:40 | 48.54428 | -71.20718 | 2209 ft | 148 kts | 107° |
| 2026-04-29 20:40 | 48.54189 | -71.19217 | 2203 ft | 147 kts | 106° |
| 2026-04-29 20:41 | 48.53923 | -71.17734 | 2140 ft | 142 kts | 111° |
| 2026-04-29 20:41 | 48.53673 | -71.16434 | 1998 ft | 114 kts | 110° |
| 2026-04-29 20:41 | 48.53470 | -71.15217 | 1898 ft | 127 kts | 109° |
| 2026-04-29 20:41 | 48.53270 | -71.13974 | 1683 ft | 124 kts | 108° |
| 2026-04-29 20:42 | 48.53063 | -71.12673 | 1555 ft | 128 kts | 107° |
| 2026-04-29 20:42 | 48.52851 | -71.11390 | 1367 ft | 125 kts | 108° |
| 2026-04-29 20:42 | 48.52634 | -71.10145 | 1229 ft | 121 kts | 107° |
| 2026-04-29 20:42 | 48.52402 | -71.08911 | 1045 ft | 124 kts | 108° |
| 2026-04-29 20:43 | 48.52163 | -71.07653 | 835 ft | 125 kts | 107° |
| 2026-04-29 20:43 | 48.51935 | -71.06407 | 616 ft | 118 kts | 106° |
| 2026-04-29 20:43 | 48.51743 | -71.05342 | 544 ft | 88 kts | 105° |
| 2026-04-29 20:43 | 48.51649 | -71.04830 | 546 ft | 32 kts | 105° |
| 2026-04-29 20:44 | 48.51589 | -71.04782 | 546 ft | 0 kts | 238° |
| 2026-04-29 20:44 | 48.51557 | -71.04862 | 545 ft | 16 kts | 240° |
| 2026-04-29 20:44 | 48.51519 | -71.04986 | 545 ft | 13 kts | 271° |
| 2026-04-29 20:45 | 48.51533 | -71.05109 | 544 ft | 13 kts | 269° |
| 2026-04-29 20:45 | 48.51542 | -71.05133 | 544 ft | 0 kts | 17° |